sensor_id;sensor_type;location;lat;lon;timestamp;pressure;altitude;pressure_sealevel;temperature;humidity
59475;BME280;45288;51.136;16.928;2024-02-26T00:00:50;99016.34;;;7.52;100.00
59475;BME280;45288;51.136;16.928;2024-02-26T00:03:43;99021.78;;;7.60;100.00
59475;BME280;45288;51.136;16.928;2024-02-26T00:06:23;99013.00;;;7.61;100.00
59475;BME280;45288;51.136;16.928;2024-02-26T00:09:09;99009.94;;;7.45;100.00
59475;BME280;45288;51.136;16.928;2024-02-26T00:11:48;99003.28;;;7.52;100.00
59475;BME280;45288;51.136;16.928;2024-02-26T00:14:34;99008.03;;;7.58;100.00
59475;BME280;45288;51.136;16.928;2024-02-26T00:17:14;99010.41;;;7.50;100.00
59475;BME280;45288;51.136;16.928;2024-02-26T00:20:01;99010.16;;;7.64;100.00
59475;BME280;45288;51.136;16.928;2024-02-26T00:22:43;99008.28;;;7.55;100.00
59475;BME280;45288;51.136;16.928;2024-02-26T00:25:29;99003.03;;;7.55;100.00
59475;BME280;45288;51.136;16.928;2024-02-26T00:28:08;98998.78;;;7.54;100.00
59475;BME280;45288;51.136;16.928;2024-02-26T00:30:54;99003.72;;;7.69;100.00
59475;BME280;45288;51.136;16.928;2024-02-26T00:33:34;99005.53;;;7.57;100.00
59475;BME280;45288;51.136;16.928;2024-02-26T00:36:20;99004.47;;;7.48;100.00
59475;BME280;45288;51.136;16.928;2024-02-26T00:38:59;99004.50;;;7.37;100.00
59475;BME280;45288;51.136;16.928;2024-02-26T00:41:45;99007.94;;;7.37;100.00
59475;BME280;45288;51.136;16.928;2024-02-26T00:44:24;98999.53;;;7.34;100.00
59475;BME280;45288;51.136;16.928;2024-02-26T00:47:10;98998.69;;;7.22;100.00
59475;BME280;45288;51.136;16.928;2024-02-26T00:49:49;98999.16;;;7.27;100.00
59475;BME280;45288;51.136;16.928;2024-02-26T00:52:35;99008.31;;;7.21;100.00
59475;BME280;45288;51.136;16.928;2024-02-26T00:55:14;99006.78;;;7.19;100.00
59475;BME280;45288;51.136;16.928;2024-02-26T00:58:00;98996.94;;;7.11;100.00
59475;BME280;45288;51.136;16.928;2024-02-26T01:00:39;98995.75;;;6.82;100.00
59475;BME280;45288;51.136;16.928;2024-02-26T01:03:25;98991.00;;;6.87;100.00
59475;BME280;45288;51.136;16.928;2024-02-26T01:06:04;98989.81;;;6.80;100.00
59475;BME280;45288;51.136;16.928;2024-02-26T01:08:50;98988.75;;;6.82;100.00
59475;BME280;45288;51.136;16.928;2024-02-26T01:11:29;98991.38;;;6.36;100.00
59475;BME280;45288;51.136;16.928;2024-02-26T01:14:15;98993.59;;;6.29;100.00
59475;BME280;45288;51.136;16.928;2024-02-26T01:16:54;98984.31;;;5.89;100.00
59475;BME280;45288;51.136;16.928;2024-02-26T01:19:40;98987.16;;;5.86;100.00
59475;BME280;45288;51.136;16.928;2024-02-26T01:22:20;98984.28;;;5.78;100.00
59475;BME280;45288;51.136;16.928;2024-02-26T01:25:06;98976.25;;;5.81;100.00
59475;BME280;45288;51.136;16.928;2024-02-26T01:27:46;98975.41;;;5.81;100.00
59475;BME280;45288;51.136;16.928;2024-02-26T01:30:32;98971.88;;;5.58;100.00
59475;BME280;45288;51.136;16.928;2024-02-26T01:33:11;98974.16;;;5.50;100.00
59475;BME280;45288;51.136;16.928;2024-02-26T01:35:57;98970.34;;;5.42;100.00
59475;BME280;45288;51.136;16.928;2024-02-26T01:38:36;98975.16;;;5.60;100.00
59475;BME280;45288;51.136;16.928;2024-02-26T01:41:22;98980.22;;;5.74;100.00
59475;BME280;45288;51.136;16.928;2024-02-26T01:44:01;98971.59;;;5.98;100.00
59475;BME280;45288;51.136;16.928;2024-02-26T01:46:47;98975.69;;;6.13;100.00
59475;BME280;45288;51.136;16.928;2024-02-26T01:49:27;98973.72;;;6.28;100.00
59475;BME280;45288;51.136;16.928;2024-02-26T01:52:14;98973.81;;;6.26;100.00
59475;BME280;45288;51.136;16.928;2024-02-26T01:54:54;98976.38;;;5.91;100.00
59475;BME280;45288;51.136;16.928;2024-02-26T01:57:42;98974.03;;;6.12;100.00
59475;BME280;45288;51.136;16.928;2024-02-26T02:00:22;98967.75;;;6.15;100.00
59475;BME280;45288;51.136;16.928;2024-02-26T02:03:15;98968.53;;;6.04;100.00
59475;BME280;45288;51.136;16.928;2024-02-26T02:05:47;98967.13;;;6.11;100.00
59475;BME280;45288;51.136;16.928;2024-02-26T02:08:40;98960.28;;;6.21;100.00
59475;BME280;45288;51.136;16.928;2024-02-26T02:11:12;98957.94;;;6.18;100.00
59475;BME280;45288;51.136;16.928;2024-02-26T02:14:05;98960.50;;;6.07;100.00
59475;BME280;45288;51.136;16.928;2024-02-26T02:16:38;98962.94;;;5.73;100.00
59475;BME280;45288;51.136;16.928;2024-02-26T02:19:31;98960.50;;;5.59;100.00
59475;BME280;45288;51.136;16.928;2024-02-26T02:22:03;98964.28;;;5.42;100.00
59475;BME280;45288;51.136;16.928;2024-02-26T02:24:56;98964.09;;;5.69;100.00
59475;BME280;45288;51.136;16.928;2024-02-26T02:27:28;98961.91;;;5.76;100.00
59475;BME280;45288;51.136;16.928;2024-02-26T02:30:26;98970.84;;;5.47;100.00
59475;BME280;45288;51.136;16.928;2024-02-26T02:32:59;98977.91;;;5.58;100.00
59475;BME280;45288;51.136;16.928;2024-02-26T02:35:52;98967.63;;;5.07;100.00
59475;BME280;45288;51.136;16.928;2024-02-26T02:38:26;98972.50;;;5.24;100.00
59475;BME280;45288;51.136;16.928;2024-02-26T02:41:19;98973.88;;;4.92;100.00
59475;BME280;45288;51.136;16.928;2024-02-26T02:43:51;98967.66;;;4.94;100.00
59475;BME280;45288;51.136;16.928;2024-02-26T02:46:44;98969.50;;;5.05;100.00
59475;BME280;45288;51.136;16.928;2024-02-26T02:49:23;98970.97;;;4.96;100.00
59475;BME280;45288;51.136;16.928;2024-02-26T02:52:09;98966.69;;;4.95;100.00
59475;BME280;45288;51.136;16.928;2024-02-26T02:54:48;98968.38;;;4.84;100.00
59475;BME280;45288;51.136;16.928;2024-02-26T02:57:34;98970.03;;;4.97;100.00
59475;BME280;45288;51.136;16.928;2024-02-26T03:00:13;98961.94;;;4.89;100.00
59475;BME280;45288;51.136;16.928;2024-02-26T03:03:06;98968.28;;;4.85;100.00
59475;BME280;45288;51.136;16.928;2024-02-26T03:05:38;98973.06;;;4.91;100.00
59475;BME280;45288;51.136;16.928;2024-02-26T03:08:31;98975.00;;;5.00;100.00
59475;BME280;45288;51.136;16.928;2024-02-26T03:11:04;98967.56;;;4.96;100.00
59475;BME280;45288;51.136;16.928;2024-02-26T03:13:57;98961.25;;;5.24;100.00
59475;BME280;45288;51.136;16.928;2024-02-26T03:16:29;98960.44;;;5.47;100.00
59475;BME280;45288;51.136;16.928;2024-02-26T03:19:22;98967.03;;;5.40;100.00
59475;BME280;45288;51.136;16.928;2024-02-26T03:21:54;98962.22;;;5.34;100.00
59475;BME280;45288;51.136;16.928;2024-02-26T03:24:47;98962.03;;;4.88;100.00
59475;BME280;45288;51.136;16.928;2024-02-26T03:27:19;98956.94;;;4.86;100.00
59475;BME280;45288;51.136;16.928;2024-02-26T03:30:12;98955.41;;;4.71;100.00
59475;BME280;45288;51.136;16.928;2024-02-26T03:32:44;98958.00;;;4.71;100.00
59475;BME280;45288;51.136;16.928;2024-02-26T03:35:37;98956.31;;;4.82;100.00
59475;BME280;45288;51.136;16.928;2024-02-26T03:38:09;98960.44;;;4.98;100.00
59475;BME280;45288;51.136;16.928;2024-02-26T03:41:02;98957.56;;;4.77;100.00
59475;BME280;45288;51.136;16.928;2024-02-26T03:43:34;98960.06;;;4.91;100.00
59475;BME280;45288;51.136;16.928;2024-02-26T03:46:27;98964.22;;;4.94;100.00
59475;BME280;45288;51.136;16.928;2024-02-26T03:48:59;98958.38;;;4.77;100.00
59475;BME280;45288;51.136;16.928;2024-02-26T03:51:52;98960.44;;;4.98;100.00
59475;BME280;45288;51.136;16.928;2024-02-26T03:54:24;98962.31;;;5.21;100.00
59475;BME280;45288;51.136;16.928;2024-02-26T03:57:17;98961.97;;;5.13;100.00
59475;BME280;45288;51.136;16.928;2024-02-26T03:59:49;98956.81;;;5.00;100.00
59475;BME280;45288;51.136;16.928;2024-02-26T04:02:49;98959.44;;;4.75;100.00
59475;BME280;45288;51.136;16.928;2024-02-26T04:05:21;98959.88;;;4.56;100.00
59475;BME280;45288;51.136;16.928;2024-02-26T04:08:14;98954.13;;;4.89;100.00
59475;BME280;45288;51.136;16.928;2024-02-26T04:10:46;98967.56;;;4.83;100.00
59475;BME280;45288;51.136;16.928;2024-02-26T04:13:39;98961.94;;;4.89;100.00
59475;BME280;45288;51.136;16.928;2024-02-26T04:16:11;98957.69;;;4.88;100.00
59475;BME280;45288;51.136;16.928;2024-02-26T04:19:04;98949.03;;;4.75;100.00
59475;BME280;45288;51.136;16.928;2024-02-26T04:21:36;98953.94;;;4.79;100.00
59475;BME280;45288;51.136;16.928;2024-02-26T04:24:29;98948.50;;;4.95;100.00
59475;BME280;45288;51.136;16.928;2024-02-26T04:27:01;98959.28;;;5.15;100.00
59475;BME280;45288;51.136;16.928;2024-02-26T04:29:54;98957.53;;;5.02;100.00
59475;BME280;45288;51.136;16.928;2024-02-26T04:32:33;98968.59;;;4.93;100.00
59475;BME280;45288;51.136;16.928;2024-02-26T04:35:19;98968.28;;;4.85;100.00
59475;BME280;45288;51.136;16.928;2024-02-26T04:37:58;98964.97;;;4.83;100.00
59475;BME280;45288;51.136;16.928;2024-02-26T04:40:44;98964.84;;;4.59;100.00
59475;BME280;45288;51.136;16.928;2024-02-26T04:43:23;98967.97;;;4.90;100.00
59475;BME280;45288;51.136;16.928;2024-02-26T04:46:09;98953.41;;;4.62;100.00
59475;BME280;45288;51.136;16.928;2024-02-26T04:48:48;98962.38;;;4.57;100.00
59475;BME280;45288;51.136;16.928;2024-02-26T04:51:34;98955.91;;;4.50;100.00
59475;BME280;45288;51.136;16.928;2024-02-26T04:54:13;98969.44;;;4.68;100.00
59475;BME280;45288;51.136;16.928;2024-02-26T04:56:59;98973.34;;;4.99;100.00
59475;BME280;45288;51.136;16.928;2024-02-26T04:59:38;98976.28;;;4.95;100.00
59475;BME280;45288;51.136;16.928;2024-02-26T05:02:31;98968.97;;;5.13;100.00
59475;BME280;45288;51.136;16.928;2024-02-26T05:05:24;98971.25;;;5.17;100.00
59475;BME280;45288;51.136;16.928;2024-02-26T05:07:56;98986.06;;;5.04;100.00
59475;BME280;45288;51.136;16.928;2024-02-26T05:10:49;98980.38;;;5.23;100.00
59475;BME280;45288;51.136;16.928;2024-02-26T05:13:21;98978.50;;;5.25;100.00
59475;BME280;45288;51.136;16.928;2024-02-26T05:16:14;98968.06;;;5.38;100.00
59475;BME280;45288;51.136;16.928;2024-02-26T05:18:47;98970.16;;;5.33;100.00
59475;BME280;45288;51.136;16.928;2024-02-26T05:21:40;98975.38;;;5.33;100.00
59475;BME280;45288;51.136;16.928;2024-02-26T05:24:12;98976.16;;;5.09;100.00
59475;BME280;45288;51.136;16.928;2024-02-26T05:27:08;98969.38;;;5.19;100.00
59475;BME280;45288;51.136;16.928;2024-02-26T05:29:40;98967.94;;;5.02;100.00
59475;BME280;45288;51.136;16.928;2024-02-26T05:32:33;98968.66;;;5.05;100.00
59475;BME280;45288;51.136;16.928;2024-02-26T05:35:06;98970.78;;;4.87;100.00
59475;BME280;45288;51.136;16.928;2024-02-26T05:37:59;98975.25;;;4.72;100.00
59475;BME280;45288;51.136;16.928;2024-02-26T05:40:31;98968.63;;;4.55;100.00
59475;BME280;45288;51.136;16.928;2024-02-26T05:43:27;98976.50;;;4.79;100.00
59475;BME280;45288;51.136;16.928;2024-02-26T05:45:59;98978.66;;;4.98;100.00
59475;BME280;45288;51.136;16.928;2024-02-26T05:48:53;98984.00;;;4.84;100.00
59475;BME280;45288;51.136;16.928;2024-02-26T05:51:25;98984.59;;;4.87;100.00
59475;BME280;45288;51.136;16.928;2024-02-26T05:54:18;98982.44;;;4.81;100.00
59475;BME280;45288;51.136;16.928;2024-02-26T05:56:50;98984.44;;;4.65;100.00
59475;BME280;45288;51.136;16.928;2024-02-26T05:59:43;98976.25;;;5.08;100.00
59475;BME280;45288;51.136;16.928;2024-02-26T06:02:30;98987.91;;;5.15;100.00
59475;BME280;45288;51.136;16.928;2024-02-26T06:05:23;98990.78;;;5.23;100.00
59475;BME280;45288;51.136;16.928;2024-02-26T06:07:55;98995.28;;;5.08;100.00
59475;BME280;45288;51.136;16.928;2024-02-26T06:10:48;98995.72;;;5.15;100.00
59475;BME280;45288;51.136;16.928;2024-02-26T06:13:20;98991.75;;;5.22;100.00
59475;BME280;45288;51.136;16.928;2024-02-26T06:16:13;98991.19;;;5.42;100.00
59475;BME280;45288;51.136;16.928;2024-02-26T06:18:45;98991.81;;;5.33;100.00
59475;BME280;45288;51.136;16.928;2024-02-26T06:21:38;98997.34;;;5.29;100.00
59475;BME280;45288;51.136;16.928;2024-02-26T06:24:10;98996.16;;;5.45;100.00
59475;BME280;45288;51.136;16.928;2024-02-26T06:27:03;98999.69;;;5.44;100.00
59475;BME280;45288;51.136;16.928;2024-02-26T06:29:35;99005.59;;;5.59;100.00
59475;BME280;45288;51.136;16.928;2024-02-26T06:32:28;98995.78;;;5.87;100.00
59475;BME280;45288;51.136;16.928;2024-02-26T06:35:08;98994.84;;;5.88;100.00
59475;BME280;45288;51.136;16.928;2024-02-26T06:37:54;98992.97;;;5.90;100.00
59475;BME280;45288;51.136;16.928;2024-02-26T06:40:33;98998.53;;;6.09;100.00
59475;BME280;45288;51.136;16.928;2024-02-26T06:43:19;99000.22;;;6.22;100.00
59475;BME280;45288;51.136;16.928;2024-02-26T06:45:58;99005.72;;;6.30;100.00
59475;BME280;45288;51.136;16.928;2024-02-26T06:48:44;98998.50;;;6.33;100.00
59475;BME280;45288;51.136;16.928;2024-02-26T06:51:23;99008.09;;;6.44;100.00
59475;BME280;45288;51.136;16.928;2024-02-26T06:54:09;99004.19;;;6.39;100.00
59475;BME280;45288;51.136;16.928;2024-02-26T06:56:48;99002.53;;;6.38;100.00
59475;BME280;45288;51.136;16.928;2024-02-26T06:59:34;99006.22;;;6.46;100.00
59475;BME280;45288;51.136;16.928;2024-02-26T07:02:20;99011.94;;;6.63;100.00
59475;BME280;45288;51.136;16.928;2024-02-26T07:05:13;99010.25;;;6.50;100.00
59475;BME280;45288;51.136;16.928;2024-02-26T07:07:45;99009.72;;;6.69;100.00
59475;BME280;45288;51.136;16.928;2024-02-26T07:10:38;99013.53;;;6.88;100.00
59475;BME280;45288;51.136;16.928;2024-02-26T07:13:10;99018.50;;;6.91;100.00
59475;BME280;45288;51.136;16.928;2024-02-26T07:16:04;99017.09;;;6.87;100.00
59475;BME280;45288;51.136;16.928;2024-02-26T07:18:39;99017.53;;;6.69;100.00
59475;BME280;45288;51.136;16.928;2024-02-26T07:21:32;99016.56;;;6.70;100.00
59475;BME280;45288;51.136;16.928;2024-02-26T07:24:04;99017.28;;;6.61;100.00
59475;BME280;45288;51.136;16.928;2024-02-26T07:26:57;99019.13;;;6.94;100.00
59475;BME280;45288;51.136;16.928;2024-02-26T07:29:29;99020.63;;;6.86;100.00
59475;BME280;45288;51.136;16.928;2024-02-26T07:32:22;99021.94;;;6.80;100.00
59475;BME280;45288;51.136;16.928;2024-02-26T07:34:54;99016.13;;;6.99;100.00
59475;BME280;45288;51.136;16.928;2024-02-26T07:37:50;99017.78;;;7.22;100.00
59475;BME280;45288;51.136;16.928;2024-02-26T07:40:22;99023.75;;;7.13;100.00
59475;BME280;45288;51.136;16.928;2024-02-26T07:43:15;99024.47;;;7.15;100.00
59475;BME280;45288;51.136;16.928;2024-02-26T07:45:47;99029.66;;;7.27;100.00
59475;BME280;45288;51.136;16.928;2024-02-26T07:48:40;99029.53;;;7.51;100.00
59475;BME280;45288;51.136;16.928;2024-02-26T07:51:13;99023.06;;;7.77;100.00
59475;BME280;45288;51.136;16.928;2024-02-26T07:54:06;99029.06;;;8.00;100.00
59475;BME280;45288;51.136;16.928;2024-02-26T07:56:38;99029.13;;;8.10;100.00
59475;BME280;45288;51.136;16.928;2024-02-26T07:59:31;99028.13;;;8.22;100.00
59475;BME280;45288;51.136;16.928;2024-02-26T08:02:05;99040.44;;;8.43;100.00
59475;BME280;45288;51.136;16.928;2024-02-26T08:04:57;99022.06;;;8.54;100.00
59475;BME280;45288;51.136;16.928;2024-02-26T08:07:29;99023.81;;;8.65;100.00
59475;BME280;45288;51.136;16.928;2024-02-26T08:10:22;99028.59;;;8.81;100.00
59475;BME280;45288;51.136;16.928;2024-02-26T08:12:54;99026.03;;;8.69;100.00
59475;BME280;45288;51.136;16.928;2024-02-26T08:15:51;99030.56;;;8.88;100.00
59475;BME280;45288;51.136;16.928;2024-02-26T08:18:23;99028.41;;;9.03;100.00
59475;BME280;45288;51.136;16.928;2024-02-26T08:21:16;99032.50;;;9.17;100.00
59475;BME280;45288;51.136;16.928;2024-02-26T08:23:48;99033.31;;;9.17;100.00
59475;BME280;45288;51.136;16.928;2024-02-26T08:26:41;99025.66;;;9.35;100.00
59475;BME280;45288;51.136;16.928;2024-02-26T08:29:13;99031.72;;;9.36;100.00
59475;BME280;45288;51.136;16.928;2024-02-26T08:32:06;99031.91;;;9.54;100.00
59475;BME280;45288;51.136;16.928;2024-02-26T08:34:39;99020.09;;;9.69;100.00
59475;BME280;45288;51.136;16.928;2024-02-26T08:37:32;99036.56;;;9.81;100.00
59475;BME280;45288;51.136;16.928;2024-02-26T08:40:11;99024.25;;;9.91;100.00
59475;BME280;45288;51.136;16.928;2024-02-26T08:42:58;99035.03;;;9.98;100.00
59475;BME280;45288;51.136;16.928;2024-02-26T08:45:37;99029.94;;;10.06;100.00
59475;BME280;45288;51.136;16.928;2024-02-26T08:48:24;99013.66;;;10.12;100.00
59475;BME280;45288;51.136;16.928;2024-02-26T08:51:07;99022.09;;;10.16;100.00
59475;BME280;45288;51.136;16.928;2024-02-26T08:53:53;99027.09;;;10.38;100.00
59475;BME280;45288;51.136;16.928;2024-02-26T08:56:32;99024.19;;;10.51;100.00
59475;BME280;45288;51.136;16.928;2024-02-26T08:59:18;99025.00;;;10.52;100.00
59475;BME280;45288;51.136;16.928;2024-02-26T09:02:09;99033.53;;;10.63;100.00
59475;BME280;45288;51.136;16.928;2024-02-26T09:05:02;99021.22;;;10.74;100.00
59475;BME280;45288;51.136;16.928;2024-02-26T09:07:34;99018.72;;;10.82;100.00
59475;BME280;45288;51.136;16.928;2024-02-26T09:10:27;99022.16;;;10.92;100.00
59475;BME280;45288;51.136;16.928;2024-02-26T09:12:59;99022.69;;;11.05;100.00
59475;BME280;45288;51.136;16.928;2024-02-26T09:15:52;99007.56;;;11.07;100.00
59475;BME280;45288;51.136;16.928;2024-02-26T09:18:24;99009.25;;;11.08;99.13
59475;BME280;45288;51.136;16.928;2024-02-26T09:21:17;99016.78;;;11.31;97.90
59475;BME280;45288;51.136;16.928;2024-02-26T09:23:54;99018.50;;;11.40;96.66
59475;BME280;45288;51.136;16.928;2024-02-26T09:26:47;99014.03;;;11.50;97.02
59475;BME280;45288;51.136;16.928;2024-02-26T09:29:19;99009.75;;;11.49;96.79
59475;BME280;45288;51.136;16.928;2024-02-26T09:32:13;99020.66;;;11.54;96.43
59475;BME280;45288;51.136;16.928;2024-02-26T09:34:45;99017.44;;;11.61;95.88
59475;BME280;45288;51.136;16.928;2024-02-26T09:37:38;99015.44;;;11.72;95.21
59475;BME280;45288;51.136;16.928;2024-02-26T09:40:11;99011.75;;;11.83;94.97
59475;BME280;45288;51.136;16.928;2024-02-26T09:43:04;99016.31;;;11.91;94.08
59475;BME280;45288;51.136;16.928;2024-02-26T09:45:38;99028.47;;;11.92;93.36
59475;BME280;45288;51.136;16.928;2024-02-26T09:48:31;99025.41;;;11.96;92.21
59475;BME280;45288;51.136;16.928;2024-02-26T09:51:04;99026.91;;;11.99;91.95
59475;BME280;45288;51.136;16.928;2024-02-26T09:53:59;99017.38;;;12.16;91.99
59475;BME280;45288;51.136;16.928;2024-02-26T09:56:31;99022.34;;;12.19;92.14
59475;BME280;45288;51.136;16.928;2024-02-26T09:59:24;99024.81;;;12.20;91.06
59475;BME280;45288;51.136;16.928;2024-02-26T10:01:58;99024.09;;;12.36;90.03
59475;BME280;45288;51.136;16.928;2024-02-26T10:04:51;99028.63;;;12.26;89.78
59475;BME280;45288;51.136;16.928;2024-02-26T10:07:25;99029.47;;;12.44;90.88
59475;BME280;45288;51.136;16.928;2024-02-26T10:10:18;99025.44;;;12.58;88.46
59475;BME280;45288;51.136;16.928;2024-02-26T10:12:51;99029.13;;;12.65;88.43
59475;BME280;45288;51.136;16.928;2024-02-26T10:15:44;99029.13;;;12.92;89.92
59475;BME280;45288;51.136;16.928;2024-02-26T10:18:16;99031.03;;;12.81;86.75
59475;BME280;45288;51.136;16.928;2024-02-26T10:21:10;99031.38;;;12.78;87.01
59475;BME280;45288;51.136;16.928;2024-02-26T10:23:42;99025.38;;;12.94;86.57
59475;BME280;45288;51.136;16.928;2024-02-26T10:26:36;99034.09;;;12.95;85.24
59475;BME280;45288;51.136;16.928;2024-02-26T10:29:09;99032.31;;;13.03;85.82
59475;BME280;45288;51.136;16.928;2024-02-26T10:32:01;99034.81;;;13.05;84.57
59475;BME280;45288;51.136;16.928;2024-02-26T10:34:35;99030.53;;;13.04;84.90
59475;BME280;45288;51.136;16.928;2024-02-26T10:37:28;99031.03;;;13.07;85.35
59475;BME280;45288;51.136;16.928;2024-02-26T10:40:01;99028.25;;;13.09;84.35
59475;BME280;45288;51.136;16.928;2024-02-26T10:42:54;99026.97;;;13.21;83.30
59475;BME280;45288;51.136;16.928;2024-02-26T10:45:34;99023.66;;;13.37;86.05
59475;BME280;45288;51.136;16.928;2024-02-26T10:48:21;99028.75;;;13.39;83.12
59475;BME280;45288;51.136;16.928;2024-02-26T10:51:01;99030.63;;;13.55;81.89
59475;BME280;45288;51.136;16.928;2024-02-26T10:53:49;99027.22;;;13.70;81.25
59475;BME280;45288;51.136;16.928;2024-02-26T10:56:34;99015.00;;;13.69;80.12
59475;BME280;45288;51.136;16.928;2024-02-26T10:59:21;99016.38;;;13.82;80.14
59475;BME280;45288;51.136;16.928;2024-02-26T11:02:08;99003.34;;;13.80;78.90
59475;BME280;45288;51.136;16.928;2024-02-26T11:05:03;99012.59;;;13.84;77.47
59475;BME280;45288;51.136;16.928;2024-02-26T11:07:36;99001.34;;;13.74;78.69
59475;BME280;45288;51.136;16.928;2024-02-26T11:10:29;99000.31;;;13.59;78.88
59475;BME280;45288;51.136;16.928;2024-02-26T11:13:02;98996.69;;;13.68;79.14
59475;BME280;45288;51.136;16.928;2024-02-26T11:15:58;98992.91;;;13.62;79.51
59475;BME280;45288;51.136;16.928;2024-02-26T11:18:31;98995.94;;;13.84;77.52
59475;BME280;45288;51.136;16.928;2024-02-26T11:21:24;98997.44;;;13.94;77.16
59475;BME280;45288;51.136;16.928;2024-02-26T11:24:12;98996.97;;;14.07;75.78
59475;BME280;45288;51.136;16.928;2024-02-26T11:27:05;98993.31;;;13.84;76.15
59475;BME280;45288;51.136;16.928;2024-02-26T11:29:43;98985.53;;;13.82;76.68
59475;BME280;45288;51.136;16.928;2024-02-26T11:32:36;98977.47;;;14.08;76.50
59475;BME280;45288;51.136;16.928;2024-02-26T11:35:08;98981.78;;;14.17;74.81
59475;BME280;45288;51.136;16.928;2024-02-26T11:38:02;98980.94;;;14.09;74.55
59475;BME280;45288;51.136;16.928;2024-02-26T11:40:38;98970.22;;;14.10;74.26
59475;BME280;45288;51.136;16.928;2024-02-26T11:43:57;98971.56;;;14.23;73.02
59475;BME280;45288;51.136;16.928;2024-02-26T11:46:41;98973.53;;;14.29;73.28
59475;BME280;45288;51.136;16.928;2024-02-26T11:49:34;98971.56;;;14.23;73.48
59475;BME280;45288;51.136;16.928;2024-02-26T11:52:08;98975.34;;;14.53;72.88
59475;BME280;45288;51.136;16.928;2024-02-26T11:55:01;98972.69;;;14.61;72.26
59475;BME280;45288;51.136;16.928;2024-02-26T11:57:39;98972.69;;;14.61;72.22
59475;BME280;45288;51.136;16.928;2024-02-26T12:00:32;98974.50;;;14.44;70.84
59475;BME280;45288;51.136;16.928;2024-02-26T12:03:25;98965.91;;;14.50;70.98
59475;BME280;45288;51.136;16.928;2024-02-26T12:05:57;98960.16;;;14.63;73.49
59475;BME280;45288;51.136;16.928;2024-02-26T12:08:50;98962.63;;;14.73;71.22
59475;BME280;45288;51.136;16.928;2024-02-26T12:11:22;98957.16;;;14.82;68.35
59475;BME280;45288;51.136;16.928;2024-02-26T12:14:17;98969.03;;;14.78;69.38
59475;BME280;45288;51.136;16.928;2024-02-26T12:16:50;98957.69;;;14.61;70.90
59475;BME280;45288;51.136;16.928;2024-02-26T12:19:43;98965.94;;;14.67;71.94
59475;BME280;45288;51.136;16.928;2024-02-26T12:22:15;98968.91;;;14.72;70.81
59475;BME280;45288;51.136;16.928;2024-02-26T12:25:11;98967.56;;;14.76;70.32
59475;BME280;45288;51.136;16.928;2024-02-26T12:27:44;98971.53;;;14.72;69.71
59475;BME280;45288;51.136;16.928;2024-02-26T12:30:37;98971.53;;;14.64;69.84
59475;BME280;45288;51.136;16.928;2024-02-26T12:33:10;98964.25;;;14.74;71.01
59475;BME280;45288;51.136;16.928;2024-02-26T12:36:03;98959.97;;;14.73;69.90
59475;BME280;45288;51.136;16.928;2024-02-26T12:38:35;98962.88;;;14.94;69.36
59475;BME280;45288;51.136;16.928;2024-02-26T12:41:28;98966.06;;;14.81;68.83
59475;BME280;45288;51.136;16.928;2024-02-26T12:44:03;98971.88;;;14.77;68.62
59475;BME280;45288;51.136;16.928;2024-02-26T12:47:03;98970.03;;;14.86;68.90
59475;BME280;45288;51.136;16.928;2024-02-26T12:49:43;98975.28;;;14.94;66.63
59475;BME280;45288;51.136;16.928;2024-02-26T12:52:31;98974.31;;;14.95;67.32
59475;BME280;45288;51.136;16.928;2024-02-26T12:55:19;98964.56;;;14.87;66.11
59475;BME280;45288;51.136;16.928;2024-02-26T12:58:09;98966.56;;;14.85;65.34
59475;BME280;45288;51.136;16.928;2024-02-26T13:00:56;98970.34;;;14.82;66.27
59475;BME280;45288;51.136;16.928;2024-02-26T13:03:50;98970.00;;;14.94;66.13
59475;BME280;45288;51.136;16.928;2024-02-26T13:06:23;98966.69;;;15.00;65.26
59475;BME280;45288;51.136;16.928;2024-02-26T13:09:17;98965.41;;;14.79;66.56
59475;BME280;45288;51.136;16.928;2024-02-26T13:11:54;98968.19;;;14.86;67.91
59475;BME280;45288;51.136;16.928;2024-02-26T13:14:58;98973.97;;;14.81;68.57
59475;BME280;45288;51.136;16.928;2024-02-26T13:17:34;98976.81;;;14.80;67.58
59475;BME280;45288;51.136;16.928;2024-02-26T13:20:27;98970.56;;;14.65;67.45
59475;BME280;45288;51.136;16.928;2024-02-26T13:23:04;98972.69;;;14.77;69.26
59475;BME280;45288;51.136;16.928;2024-02-26T13:25:57;98976.63;;;14.73;68.85
59475;BME280;45288;51.136;16.928;2024-02-26T13:28:29;98976.31;;;14.85;67.58
59475;BME280;45288;51.136;16.928;2024-02-26T13:31:22;98982.72;;;14.90;66.43
59475;BME280;45288;51.136;16.928;2024-02-26T13:33:54;98979.25;;;14.81;67.02
59475;BME280;45288;51.136;16.928;2024-02-26T13:36:47;98984.41;;;14.75;66.99
59475;BME280;45288;51.136;16.928;2024-02-26T13:39:27;98981.44;;;14.70;66.98
59475;BME280;45288;51.136;16.928;2024-02-26T13:42:20;98978.47;;;14.65;68.55
59475;BME280;45288;51.136;16.928;2024-02-26T13:44:52;98984.94;;;14.62;69.38
59475;BME280;45288;51.136;16.928;2024-02-26T13:47:45;98972.53;;;14.46;70.71
59475;BME280;45288;51.136;16.928;2024-02-26T13:50:24;98976.31;;;14.27;72.26
59475;BME280;45288;51.136;16.928;2024-02-26T13:53:11;98979.00;;;14.35;72.56
59475;BME280;45288;51.136;16.928;2024-02-26T13:55:50;98973.19;;;14.48;72.01
59475;BME280;45288;51.136;16.928;2024-02-26T13:58:37;98980.63;;;14.45;71.86
59475;BME280;45288;51.136;16.928;2024-02-26T14:01:16;98969.59;;;14.33;71.41
59475;BME280;45288;51.136;16.928;2024-02-26T14:04:09;98978.34;;;14.25;72.28
59475;BME280;45288;51.136;16.928;2024-02-26T14:06:42;98975.16;;;14.30;72.71
59475;BME280;45288;51.136;16.928;2024-02-26T14:09:35;98976.50;;;14.34;71.91
59475;BME280;45288;51.136;16.928;2024-02-26T14:12:08;98975.66;;;14.17;72.82
59475;BME280;45288;51.136;16.928;2024-02-26T14:15:00;98971.72;;;14.13;72.18